createdAt,value
2019-02-28T00:01:01.362Z,98461.43
2019-02-28T00:03:30.598Z,98456.51
2019-02-28T00:05:59.872Z,98456.19
2019-02-28T00:08:29.083Z,98455.78
2019-02-28T00:10:58.356Z,98444.32
2019-02-28T00:13:27.735Z,98439.59
2019-02-28T00:15:56.976Z,98440.59
2019-02-28T00:18:26.215Z,98438.13
2019-02-28T00:20:55.454Z,98436.77
2019-02-28T00:23:24.714Z,98433.97
2019-02-28T00:25:53.968Z,98431.98
2019-02-28T00:28:25.779Z,98428.02
2019-02-28T00:30:54.177Z,98422.21
2019-02-28T00:33:23.578Z,98415.98
2019-02-28T00:35:52.841Z,98419.41
2019-02-28T00:38:22.104Z,98419.76
2019-02-28T00:40:51.351Z,98418.45
2019-02-28T00:43:22.313Z,98417.48
2019-02-28T00:45:51.541Z,98410.90
2019-02-28T00:48:21.744Z,98412.69
2019-02-28T00:50:51.666Z,98403.99
2019-02-28T00:53:20.905Z,98409.04
2019-02-28T00:55:50.140Z,98403.17
2019-02-28T00:58:19.510Z,98406.75
2019-02-28T01:00:48.825Z,98402.80
2019-02-28T01:03:18.039Z,98393.71
2019-02-28T01:05:47.359Z,98389.57
2019-02-28T01:08:19.105Z,98384.19
2019-02-28T01:10:47.571Z,98388.00
2019-02-28T01:13:16.810Z,98380.45
2019-02-28T01:15:46.074Z,98381.73
2019-02-28T01:18:15.346Z,98381.12
2019-02-28T01:20:49.968Z,98374.41
2019-02-28T01:23:15.601Z,98367.29
2019-02-28T01:25:44.822Z,98366.94
2019-02-28T01:28:14.086Z,98362.55
2019-02-28T01:30:43.313Z,98362.39
2019-02-28T01:33:12.542Z,98356.63
2019-02-28T01:35:41.777Z,98352.37
2019-02-28T01:38:11.013Z,98356.02
2019-02-28T01:40:40.245Z,98358.00
2019-02-28T01:43:09.496Z,98351.59
2019-02-28T01:45:43.447Z,98341.58
2019-02-28T01:48:09.702Z,98335.49
2019-02-28T01:50:38.925Z,98335.14
2019-02-28T01:53:08.168Z,98328.59
2019-02-28T01:55:37.411Z,98323.20
2019-02-28T01:58:06.693Z,98324.16
2019-02-28T02:00:35.910Z,98323.16
2019-02-28T02:03:05.231Z,98323.34
2019-02-28T02:05:34.483Z,98330.61
2019-02-28T02:08:06.491Z,98328.47
2019-02-28T02:10:34.776Z,98327.28
2019-02-28T02:13:04.347Z,98329.74
2019-02-28T02:15:33.526Z,98321.53
2019-02-28T02:18:02.864Z,98309.68
2019-02-28T02:20:32.093Z,98310.88
2019-02-28T02:23:01.359Z,98306.75
2019-02-28T02:25:30.594Z,98301.52
2019-02-28T02:27:59.868Z,98294.45
2019-02-28T02:30:29.192Z,98292.80
2019-02-28T02:32:58.440Z,98284.59
2019-02-28T02:35:27.674Z,98287.71
2019-02-28T02:37:56.924Z,98288.09
2019-02-28T02:40:26.151Z,98284.80
2019-02-28T02:42:55.388Z,98278.67
2019-02-28T02:45:24.627Z,98277.70
2019-02-28T02:47:53.870Z,98284.63
2019-02-28T02:50:23.080Z,98280.55
2019-02-28T02:52:52.323Z,98274.62
2019-02-28T02:55:27.960Z,98271.34
2019-02-28T02:57:52.539Z,98272.17
2019-02-28T03:00:21.757Z,98261.64
2019-02-28T03:02:51.061Z,98260.33
2019-02-28T03:05:20.281Z,98256.73
2019-02-28T03:07:49.540Z,98256.37
2019-02-28T03:10:19.729Z,98249.98
2019-02-28T03:12:49.398Z,98245.72
2019-02-28T03:15:25.461Z,98243.39
2019-02-28T03:17:49.745Z,98243.05
2019-02-28T03:20:19.000Z,98247.17
2019-02-28T03:22:48.477Z,98236.02
2019-02-28T03:25:17.808Z,98225.84
2019-02-28T03:27:47.069Z,98224.56
2019-02-28T03:30:26.010Z,98222.42
2019-02-28T03:32:47.843Z,98225.91
2019-02-28T03:35:17.060Z,98212.24
2019-02-28T03:37:46.320Z,98214.88
2019-02-28T03:40:15.746Z,98220.62
2019-02-28T03:42:44.997Z,98222.12
2019-02-28T03:45:14.758Z,98221.96
2019-02-28T03:47:44.011Z,98223.44
2019-02-28T03:50:13.783Z,98219.34
2019-02-28T03:52:44.655Z,98232.65
2019-02-28T03:55:14.510Z,98222.98
2019-02-28T03:57:44.033Z,98214.27
2019-02-28T04:00:15.828Z,98229.21
2019-02-28T04:02:45.093Z,98225.27
2019-02-28T04:05:14.325Z,98232.83
2019-02-28T04:07:43.555Z,98225.27
2019-02-28T04:10:16.648Z,98231.49
2019-02-28T04:12:45.543Z,98225.94
2019-02-28T04:15:15.075Z,98233.16
2019-02-28T04:17:44.333Z,98229.55
2019-02-28T04:20:13.700Z,98219.17
2019-02-28T04:22:42.943Z,98210.64
2019-02-28T04:25:12.226Z,98210.17
2019-02-28T04:27:41.848Z,98203.25
2019-02-28T04:30:12.146Z,98207.69
2019-02-28T04:32:41.369Z,98215.42
2019-02-28T04:35:11.712Z,98204.25
2019-02-28T04:37:44.979Z,98209.84
2019-02-28T04:40:12.200Z,98215.24
2019-02-28T04:42:41.448Z,98208.84
2019-02-28T04:45:11.133Z,98205.73
2019-02-28T04:47:41.578Z,98200.14
2019-02-28T04:50:12.638Z,98206.53
2019-02-28T04:52:46.718Z,98201.48
2019-02-28T04:55:13.368Z,98202.92
2019-02-28T04:57:42.592Z,98198.84
2019-02-28T05:00:12.157Z,98191.27
2019-02-28T05:02:41.435Z,98192.91
2019-02-28T05:05:12.814Z,98186.85
2019-02-28T05:07:42.175Z,98193.57
2019-02-28T05:10:12.138Z,98189.95
2019-02-28T05:12:41.363Z,98189.47
2019-02-28T05:15:10.976Z,98184.38
2019-02-28T05:17:40.222Z,98178.31
2019-02-28T05:20:10.799Z,98183.56
2019-02-28T05:22:40.569Z,98180.28
2019-02-28T05:25:10.065Z,98177.31
2019-02-28T05:27:40.252Z,98175.52
2019-02-28T05:30:11.582Z,98189.80
2019-02-28T05:32:40.823Z,98182.58
2019-02-28T05:35:10.083Z,98186.34
2019-02-28T05:37:39.324Z,98182.58
2019-02-28T05:40:10.348Z,98181.58
2019-02-28T05:42:39.561Z,98183.06
2019-02-28T05:45:11.401Z,98182.09
2019-02-28T05:47:46.336Z,98183.74
2019-02-28T05:50:15.092Z,98191.59
2019-02-28T05:52:42.903Z,98183.25
2019-02-28T05:55:12.161Z,98175.69
2019-02-28T05:57:43.570Z,98174.72
2019-02-28T06:00:13.773Z,98181.43
2019-02-28T06:02:43.000Z,98181.45
2019-02-28T06:05:12.811Z,98181.44
2019-02-28T06:07:42.680Z,98183.91
2019-02-28T06:10:12.581Z,98185.70
2019-02-28T06:12:43.789Z,98182.90
2019-02-28T06:15:13.239Z,98181.45
2019-02-28T06:17:42.501Z,98192.42
2019-02-28T06:20:16.354Z,98192.61
2019-02-28T06:22:43.486Z,98188.83
2019-02-28T06:25:12.791Z,98190.28
2019-02-28T06:27:45.736Z,98187.48
2019-02-28T06:30:13.350Z,98188.66
2019-02-28T06:32:42.580Z,98196.20
2019-02-28T06:35:16.062Z,98192.11
2019-02-28T06:37:42.799Z,98197.36
2019-02-28T06:40:13.432Z,98202.75
2019-02-28T06:42:43.466Z,98199.32
2019-02-28T06:45:14.716Z,98196.20
2019-02-28T06:47:47.940Z,98191.92
2019-02-28T06:50:15.379Z,98191.07
2019-02-28T06:52:44.603Z,98200.03
2019-02-28T06:55:18.020Z,98196.47
2019-02-28T06:57:47.276Z,98194.56
2019-02-28T07:00:17.091Z,98187.48
2019-02-28T07:02:46.299Z,98188.73
2019-02-28T07:05:15.579Z,98192.76
2019-02-28T07:07:45.654Z,98189.23
2019-02-28T07:10:15.851Z,98194.00
2019-02-28T07:12:45.067Z,98189.11
2019-02-28T07:15:14.632Z,98188.94
2019-02-28T07:17:46.585Z,98188.72
2019-02-28T07:20:15.427Z,98181.00
2019-02-28T07:22:44.818Z,98184.12
2019-02-28T07:25:14.059Z,98176.00
2019-02-28T07:27:43.375Z,98174.59
2019-02-28T07:30:18.448Z,98170.00
2019-02-28T07:32:45.439Z,98165.59
2019-02-28T07:35:14.668Z,98163.47
2019-02-28T07:37:43.992Z,98164.63
2019-02-28T07:40:16.177Z,98164.16
2019-02-28T07:42:44.639Z,98162.36
2019-02-28T07:45:14.251Z,98165.48
2019-02-28T07:47:43.815Z,98164.77
2019-02-28T07:50:13.073Z,98157.29
2019-02-28T07:52:42.333Z,98165.69
2019-02-28T07:55:12.244Z,98165.73
2019-02-28T07:57:41.529Z,98162.71
2019-02-28T08:00:18.317Z,98158.30
2019-02-28T08:02:45.603Z,98157.83
2019-02-28T08:05:15.071Z,98156.23
2019-02-28T08:07:50.250Z,98162.11
2019-02-28T08:10:16.880Z,98158.98
2019-02-28T08:12:46.167Z,98163.61
2019-02-28T08:15:24.676Z,98159.73
2019-02-28T08:17:53.951Z,98155.26
2019-02-28T08:20:23.217Z,98154.25
2019-02-28T08:22:56.423Z,98149.75
2019-02-28T08:25:23.587Z,98146.92
2019-02-28T08:27:52.852Z,98147.88
2019-02-28T08:30:22.980Z,98149.61
2019-02-28T08:32:52.260Z,98145.22
2019-02-28T08:35:21.482Z,98147.00
2019-02-28T08:37:55.642Z,98136.25
2019-02-28T08:40:21.985Z,98130.62
2019-02-28T08:42:51.412Z,98131.89
2019-02-28T08:45:20.651Z,98138.06
2019-02-28T08:47:55.455Z,98137.66
2019-02-28T08:50:23.702Z,98132.34
2019-02-28T08:52:53.192Z,98130.04
2019-02-28T08:55:28.842Z,98131.38
2019-02-28T08:57:56.907Z,98134.15
2019-02-28T09:00:31.075Z,98117.62
2019-02-28T09:02:55.725Z,98120.03
2019-02-28T09:05:26.655Z,98116.98
2019-02-28T09:07:56.008Z,98114.10
2019-02-28T09:10:25.480Z,98108.44
2019-02-28T09:12:54.733Z,98112.41
2019-02-28T09:15:30.052Z,98105.38
2019-02-28T09:17:58.158Z,98104.67
2019-02-28T09:20:26.157Z,98097.67
2019-02-28T09:23:01.631Z,98107.80
2019-02-28T09:25:27.106Z,98112.38
2019-02-28T09:27:56.572Z,98108.41
2019-02-28T09:30:31.598Z,98105.69
2019-02-28T09:33:00.856Z,98108.36
2019-02-28T09:35:30.100Z,98103.13
2019-02-28T09:38:00.290Z,98089.45
2019-02-28T09:40:30.619Z,98088.16
2019-02-28T09:42:59.914Z,98082.64
2019-02-28T09:45:29.181Z,98079.18
2019-02-28T09:48:01.998Z,98074.70
2019-02-28T09:50:29.695Z,98074.77
2019-02-28T09:52:58.996Z,98077.30
2019-02-28T09:55:28.222Z,98070.92
2019-02-28T09:57:57.613Z,98073.59
2019-02-28T10:00:27.825Z,98077.92
2019-02-28T10:02:57.086Z,98062.88
2019-02-28T10:05:26.336Z,98054.45
2019-02-28T10:08:01.694Z,98063.59
2019-02-28T10:10:26.645Z,98056.33
2019-02-28T10:12:56.850Z,98053.10
2019-02-28T10:15:26.531Z,98043.10
2019-02-28T10:17:55.894Z,98049.31
2019-02-28T10:20:28.251Z,98041.86
2019-02-28T10:22:57.487Z,98042.39
2019-02-28T10:25:26.980Z,98039.41
2019-02-28T10:28:01.383Z,98036.16
2019-02-28T10:30:31.669Z,98025.81
2019-02-28T10:32:58.427Z,98023.66
2019-02-28T10:35:27.681Z,98016.85
2019-02-28T10:37:58.390Z,98018.26
2019-02-28T10:40:28.195Z,98025.45
2019-02-28T10:42:57.443Z,98021.79
2019-02-28T10:45:27.342Z,98021.30
2019-02-28T10:47:56.600Z,98019.25
2019-02-28T10:50:32.142Z,98009.77
2019-02-28T10:52:57.285Z,98010.55
2019-02-28T10:55:26.646Z,98003.33
2019-02-28T10:57:55.880Z,97993.61
2019-02-28T11:00:29.386Z,97989.91
2019-02-28T11:03:00.745Z,97979.92
2019-02-28T11:05:33.928Z,97980.63
2019-02-28T11:08:04.335Z,97973.59
2019-02-28T11:10:38.506Z,97964.72
2019-02-28T11:13:10.625Z,97960.13
2019-02-28T11:15:39.996Z,97960.13
2019-02-28T11:18:09.969Z,97964.94
2019-02-28T11:20:40.947Z,97952.47
2019-02-28T11:23:14.230Z,97950.75
2019-02-28T11:25:41.802Z,97951.06
2019-02-28T11:28:11.539Z,97946.03
2019-02-28T11:30:44.036Z,97947.25
2019-02-28T11:33:12.116Z,97951.22
2019-02-28T11:35:41.392Z,97939.05
2019-02-28T11:38:11.269Z,97945.13
2019-02-28T11:40:43.875Z,97940.29
2019-02-28T11:43:11.674Z,97946.77
2019-02-28T11:45:42.061Z,97943.47
2019-02-28T11:48:12.867Z,97930.22
2019-02-28T11:50:44.989Z,97934.78
2019-02-28T11:53:13.293Z,97925.04
2019-02-28T11:55:42.759Z,97927.22
2019-02-28T11:58:16.551Z,97909.99
2019-02-28T12:00:43.111Z,97922.06
2019-02-28T12:03:12.390Z,97907.24
2019-02-28T12:05:41.784Z,97914.11
2019-02-28T12:08:11.251Z,97910.24
2019-02-28T12:10:40.543Z,97890.05
2019-02-28T12:13:10.065Z,97887.30
2019-02-28T12:15:39.423Z,97884.22
2019-02-28T12:18:08.670Z,97884.38
2019-02-28T12:20:38.293Z,97871.19
2019-02-28T12:23:07.549Z,97882.93
2019-02-28T12:25:39.490Z,97882.63
2019-02-28T12:28:07.831Z,97878.55
2019-02-28T12:30:37.400Z,97879.83
2019-02-28T12:33:06.642Z,97876.56
2019-02-28T12:35:39.950Z,97891.76
2019-02-28T12:38:06.986Z,97880.36
2019-02-28T12:40:36.306Z,97876.38
2019-02-28T12:43:08.634Z,97875.17
2019-02-28T12:45:39.025Z,97875.95
2019-02-28T12:48:08.512Z,97866.69
2019-02-28T12:50:37.752Z,97861.89
2019-02-28T12:53:07.098Z,97864.55
2019-02-28T12:55:38.802Z,97865.86
2019-02-28T12:58:07.382Z,97863.67
2019-02-28T13:00:38.081Z,97850.45
2019-02-28T13:03:09.165Z,97850.36
2019-02-28T13:05:38.679Z,97850.36
2019-02-28T13:08:08.139Z,97834.41
2019-02-28T13:10:37.677Z,97831.30
2019-02-28T13:13:07.796Z,97832.93
2019-02-28T13:15:37.432Z,97819.98
2019-02-28T13:18:08.953Z,97829.06
2019-02-28T13:20:38.122Z,97824.48
2019-02-28T13:23:07.396Z,97812.36
2019-02-28T13:25:36.664Z,97824.30
2019-02-28T13:28:06.913Z,97805.64
2019-02-28T13:30:39.680Z,97822.88
2019-02-28T13:33:07.243Z,97833.34
2019-02-28T13:35:36.647Z,97809.89
2019-02-28T13:38:06.245Z,97818.87
2019-02-28T13:40:35.662Z,97832.17
2019-02-28T13:43:05.029Z,97806.24
2019-02-28T13:45:34.281Z,97801.02
2019-02-28T13:48:03.611Z,97803.25
2019-02-28T13:50:33.090Z,97796.30
2019-02-28T13:53:16.913Z,97805.48
2019-02-28T13:55:33.726Z,97804.13
2019-02-28T13:58:03.078Z,97797.84
2019-02-28T14:00:32.679Z,97784.84
2019-02-28T14:03:08.863Z,97789.83
2019-02-28T14:05:38.784Z,97802.96
2019-02-28T14:08:09.762Z,97790.73
2019-02-28T14:10:36.778Z,97791.73
2019-02-28T14:13:06.187Z,97790.02
2019-02-28T14:15:38.070Z,97786.44
2019-02-28T14:18:10.693Z,97796.73
2019-02-28T14:20:38.862Z,97788.66
2019-02-28T14:23:08.141Z,97786.10
2019-02-28T14:25:39.716Z,97793.22
2019-02-28T14:28:08.387Z,97787.18
2019-02-28T14:30:37.614Z,97783.22
2019-02-28T14:33:07.164Z,97786.20
2019-02-28T14:35:38.490Z,97777.70
2019-02-28T14:38:07.669Z,97781.88
2019-02-28T14:40:36.979Z,97769.56
2019-02-28T14:43:06.435Z,97777.00
2019-02-28T14:45:39.301Z,97776.77
2019-02-28T14:48:07.265Z,97780.89
2019-02-28T14:50:36.509Z,97776.72
2019-02-28T14:53:06.067Z,97769.50
2019-02-28T14:55:37.403Z,97762.48
2019-02-28T14:58:06.542Z,97777.27
2019-02-28T15:00:38.913Z,97775.69
2019-02-28T15:03:06.806Z,97776.22
2019-02-28T15:05:36.855Z,97776.22
2019-02-28T15:08:06.305Z,97764.77
2019-02-28T15:10:35.809Z,97770.02
2019-02-28T15:13:05.273Z,97777.87
2019-02-28T15:15:36.295Z,97780.05
2019-02-28T15:18:05.886Z,97780.20
2019-02-28T15:20:35.148Z,97780.01
2019-02-28T15:23:04.508Z,97777.88
2019-02-28T15:25:33.748Z,97772.79
2019-02-28T15:28:02.978Z,97768.49
2019-02-28T15:30:33.876Z,97748.70
2019-02-28T15:33:03.728Z,97766.30
2019-02-28T15:35:32.983Z,97732.39
2019-02-28T15:38:02.235Z,97745.70
2019-02-28T15:40:33.538Z,97760.02
2019-02-28T15:43:02.843Z,97762.74
2019-02-28T15:45:32.136Z,97759.30
2019-02-28T15:48:01.383Z,97757.95
2019-02-28T15:50:30.642Z,97769.83
2019-02-28T15:53:00.090Z,97763.33
2019-02-28T15:55:29.491Z,97763.03
2019-02-28T15:57:58.730Z,97761.13
2019-02-28T16:00:29.367Z,97765.47
2019-02-28T16:02:58.762Z,97773.83
2019-02-28T16:05:28.079Z,97769.27
2019-02-28T16:07:58.453Z,97765.22
2019-02-28T16:10:31.858Z,97766.03
2019-02-28T16:13:01.657Z,97769.81
2019-02-28T16:15:31.127Z,97762.55
2019-02-28T16:18:00.404Z,97765.49
2019-02-28T16:20:32.061Z,97758.77
2019-02-28T16:23:00.714Z,97769.81
2019-02-28T16:25:31.911Z,97762.81
2019-02-28T16:28:01.151Z,97762.78
2019-02-28T16:30:32.191Z,97755.78
2019-02-28T16:33:01.954Z,97759.77
2019-02-28T16:35:31.207Z,97758.66
2019-02-28T16:38:00.615Z,97767.21
2019-02-28T16:40:29.997Z,97752.95
2019-02-28T16:42:59.242Z,97774.38
2019-02-28T16:45:33.855Z,97768.09
2019-02-28T16:48:05.503Z,97776.60
2019-02-28T16:50:34.872Z,97771.17
2019-02-28T16:53:04.528Z,97779.47
2019-02-28T16:55:33.819Z,97776.78
2019-02-28T16:58:03.086Z,97778.33
2019-02-28T17:00:32.330Z,97773.72
2019-02-28T17:03:04.141Z,97786.22
2019-02-28T17:05:32.691Z,97779.77
2019-02-28T17:08:01.942Z,97785.10
2019-02-28T17:10:32.989Z,97787.67
2019-02-28T17:13:17.357Z,97786.81
2019-02-28T17:16:14.751Z,97801.23
2019-02-28T17:18:43.995Z,97798.50
2019-02-28T17:21:17.866Z,97802.22
2019-02-28T17:23:45.274Z,97808.80
2019-02-28T17:26:14.621Z,97804.70
2019-02-28T17:28:51.277Z,97809.45
2019-02-28T17:31:38.240Z,97806.54
2019-02-28T17:34:07.561Z,97801.61
2019-02-28T17:36:36.842Z,97802.28
2019-02-28T17:39:07.864Z,97806.76
2019-02-28T17:41:37.913Z,97815.27
2019-02-28T17:44:40.715Z,97808.77
2019-02-28T17:47:54.919Z,97815.04
2019-02-28T17:50:28.598Z,97819.20
2019-02-28T17:53:11.016Z,97818.23
2019-02-28T17:56:44.550Z,97820.37
2019-02-28T17:59:36.024Z,97825.27
2019-02-28T18:02:38.117Z,97824.52
2019-02-28T18:05:43.045Z,97826.25
2019-02-28T18:08:37.770Z,97832.09
2019-02-28T18:11:55.511Z,97828.08
2019-02-28T18:14:44.453Z,97832.98
2019-02-28T18:17:49.739Z,97838.75
2019-02-28T18:20:46.328Z,97845.88
2019-02-28T18:23:40.139Z,97840.39
2019-02-28T18:26:45.269Z,97835.80
2019-02-28T18:30:09.314Z,97828.59
2019-02-28T18:32:39.438Z,97834.00
2019-02-28T18:35:08.722Z,97830.45
2019-02-28T18:37:38.021Z,97828.00
2019-02-28T18:40:07.710Z,97831.95
2019-02-28T18:42:37.000Z,97831.94
2019-02-28T18:45:07.476Z,97827.34
2019-02-28T18:47:39.859Z,97831.20
2019-02-28T18:50:07.856Z,97828.66
2019-02-28T18:52:37.132Z,97830.09
2019-02-28T18:55:06.718Z,97829.91
2019-02-28T18:57:36.151Z,97826.81
2019-02-28T19:00:08.545Z,97826.91
2019-02-28T19:02:37.514Z,97825.41
2019-02-28T19:05:07.324Z,97823.99
2019-02-28T19:07:36.570Z,97816.28
2019-02-28T19:10:06.019Z,97819.55
2019-02-28T19:12:35.280Z,97820.75
2019-02-28T19:15:04.964Z,97821.27
2019-02-28T19:17:34.223Z,97825.30
2019-02-28T19:20:03.442Z,97827.27
2019-02-28T19:22:32.766Z,97822.70
2019-02-28T19:25:02.030Z,97812.83
2019-02-28T19:27:31.263Z,97822.88
2019-02-28T19:30:00.526Z,97816.73
2019-02-28T19:32:29.786Z,97826.72
2019-02-28T19:34:59.074Z,97827.64
2019-02-28T19:37:28.314Z,97831.42
2019-02-28T19:39:57.564Z,97833.05
2019-02-28T19:42:26.882Z,97834.14
2019-02-28T19:44:56.133Z,97830.13
2019-02-28T19:47:25.370Z,97826.64
2019-02-28T19:49:54.642Z,97826.00
2019-02-28T19:52:23.861Z,97824.25
2019-02-28T19:54:53.148Z,97830.38
2019-02-28T19:57:22.372Z,97832.19
2019-02-28T19:59:51.633Z,97838.34
2019-02-28T20:02:20.885Z,97839.27
2019-02-28T20:04:50.151Z,97844.16
2019-02-28T20:07:19.402Z,97840.87
2019-02-28T20:09:48.658Z,97848.64
2019-02-28T20:12:17.875Z,97844.97
2019-02-28T20:14:47.152Z,97847.41
2019-02-28T20:17:16.413Z,97844.28
2019-02-28T20:19:45.695Z,97844.64
2019-02-28T20:22:14.923Z,97849.55
2019-02-28T20:24:44.185Z,97849.08
2019-02-28T20:27:14.024Z,97852.22
2019-02-28T20:29:43.277Z,97850.77
2019-02-28T20:32:12.531Z,97845.87
2019-02-28T20:34:41.813Z,97854.09
2019-02-28T20:37:11.052Z,97861.70
2019-02-28T20:39:40.339Z,97861.15
2019-02-28T20:42:09.598Z,97861.38
2019-02-28T20:44:38.853Z,97864.59
2019-02-28T20:47:08.092Z,97867.92
2019-02-28T20:49:37.562Z,97877.08
2019-02-28T20:52:06.801Z,97877.99
2019-02-28T20:54:36.064Z,97876.28
2019-02-28T20:57:05.345Z,97882.35
2019-02-28T20:59:34.625Z,97879.02
2019-02-28T21:02:03.931Z,97878.68
2019-02-28T21:04:33.187Z,97879.31
2019-02-28T21:07:02.439Z,97877.69
2019-02-28T21:09:31.735Z,97886.92
2019-02-28T21:12:00.965Z,97887.08
2019-02-28T21:14:30.223Z,97879.35
2019-02-28T21:16:59.445Z,97883.36
2019-02-28T21:19:28.673Z,97874.70
2019-02-28T21:21:57.941Z,97879.80
2019-02-28T21:24:27.155Z,97889.59
2019-02-28T21:26:56.450Z,97891.40
2019-02-28T21:29:25.667Z,97892.64
2019-02-28T21:31:54.910Z,97891.70
2019-02-28T21:34:24.160Z,97892.88
2019-02-28T21:36:53.658Z,97891.47
2019-02-28T21:39:22.864Z,97891.95
2019-02-28T21:41:52.115Z,97904.31
2019-02-28T21:44:21.342Z,97900.95
2019-02-28T21:46:50.671Z,97900.59
2019-02-28T21:49:19.971Z,97902.41
2019-02-28T21:51:49.249Z,97906.11
2019-02-28T21:54:18.478Z,97899.98
2019-02-28T21:56:47.733Z,97904.03
2019-02-28T21:59:16.981Z,97907.62
2019-02-28T22:01:46.252Z,97906.69
2019-02-28T22:04:15.533Z,97903.51
2019-02-28T22:06:44.922Z,97912.02
2019-02-28T22:09:14.153Z,97903.91
2019-02-28T22:11:43.407Z,97907.39
2019-02-28T22:14:12.667Z,97908.61
2019-02-28T22:16:41.953Z,97921.59
2019-02-28T22:19:11.209Z,97910.34
2019-02-28T22:21:40.480Z,97915.28
2019-02-28T22:24:09.711Z,97905.79
2019-02-28T22:26:38.975Z,97900.81
2019-02-28T22:29:08.249Z,97905.23
2019-02-28T22:32:02.478Z,97923.36
2019-02-28T22:34:36.931Z,97917.91
2019-02-28T22:37:06.204Z,97926.25
2019-02-28T22:39:35.428Z,97925.15
2019-02-28T22:42:04.726Z,97924.92
2019-02-28T22:44:33.964Z,97940.44
2019-02-28T22:47:03.290Z,97945.77
2019-02-28T22:49:33.703Z,97939.02
2019-02-28T22:52:03.104Z,97929.92
2019-02-28T22:54:32.361Z,97927.28
2019-02-28T22:57:01.590Z,97930.33
2019-02-28T22:59:30.954Z,97925.77
2019-02-28T23:02:00.197Z,97923.48
2019-02-28T23:04:29.417Z,97918.22
2019-02-28T23:06:58.687Z,97910.69
2019-02-28T23:09:27.914Z,97912.72
2019-02-28T23:11:57.177Z,97915.03
2019-02-28T23:14:26.471Z,97913.25
2019-02-28T23:16:55.743Z,97909.66
2019-02-28T23:19:24.977Z,97914.27
2019-02-28T23:21:54.250Z,97920.14
2019-02-28T23:24:23.478Z,97924.19
2019-02-28T23:27:27.253Z,97927.90
2019-02-28T23:30:30.869Z,97936.91
2019-02-28T23:33:06.446Z,97937.05
2019-02-28T23:35:38.374Z,97923.38
2019-02-28T23:38:07.637Z,97913.02
2019-02-28T23:40:36.865Z,97908.28
2019-02-28T23:43:06.121Z,97906.05
2019-02-28T23:45:35.396Z,97910.53
2019-02-28T23:48:04.637Z,97902.39
2019-02-28T23:50:33.918Z,97905.34
2019-02-28T23:53:03.166Z,97904.48
2019-02-28T23:55:32.444Z,97903.16
2019-02-28T23:58:01.696Z,97908.06
